Time;durP1;ratioP1;P1;durP2;ratioP2;P2;SDS_P1;SDS_P2;PMS_P1;PMS_P2;Temp;Humidity;BMP_temperature;BMP_pressure;BME280_temperature;BME280_humidity;BME280_pressure;Samples;Min_cycle;Max_cycle;Signal;HPM_P1;HPM_P2
2023/07/05 00:01:22;;;;;;;;;;;;;;;17.61;78.03;92853.97;2055165;70;20066;-77
2023/07/05 00:03:49;;;;;;;;;;;;;;;17.60;77.89;92844.69;2055201;69;20082;-78
2023/07/05 00:06:16;;;;;;;;;;;;;;;17.55;77.65;92848.78;2055042;70;20108;-77
2023/07/05 00:08:41;;;;;;;;;;;;;;;17.57;77.96;92842.41;2068308;69;20050;-78
2023/07/05 00:11:08;;;;;;;;;;;;;;;17.63;77.03;92849.06;2055442;69;20562;-77
2023/07/05 00:17:01;;;;;;;;;;;;;;;17.17;79.92;92836.66;2055111;69;20057;-78
2023/07/05 00:19:26;;;;;;;;;;;;;;;17.36;78.30;92830.25;2068313;69;20050;-80
2023/07/05 00:21:52;;;;;;;;;;;;;;;17.36;78.78;92838.06;2055153;70;20471;-79
2023/07/05 00:24:18;;;;;;;;;;;;;;;17.22;79.54;92836.16;2055292;70;20070;-79
2023/07/05 00:26:44;;;;;;;;;;;;;;;17.36;78.87;92844.50;2055629;69;20066;-81
2023/07/05 00:29:10;;;;;;;;;;;;;;;17.39;78.54;92825.38;2055086;70;20050;-81
2023/07/05 00:31:36;;;;;;;;;;;;;;;17.40;78.27;92827.56;2055631;70;20050;-80
2023/07/05 00:34:01;;;;;;;;;;;;;;;17.38;78.01;92824.66;2065742;69;20564;-80
2023/07/05 00:36:27;;;;;;;;;;;;;;;17.14;79.95;92812.38;2055475;70;20062;-80
2023/07/05 00:38:53;;;;;;;;;;;;;;;17.39;77.21;92803.34;2068621;69;20054;-79
2023/07/05 00:41:20;;;;;;;;;;;;;;;17.20;78.26;92807.63;2055699;70;20146;-79
2023/07/05 00:43:48;;;;;;;;;;;;;;;17.31;78.20;92813.69;2068693;69;20047;-79
2023/07/05 00:46:24;;;;;;;;;;;;;;;17.36;77.92;92812.47;2068586;69;20088;-80
2023/07/05 00:48:55;;;;;;;;;;;;;;;17.11;79.71;92814.41;2068634;69;20050;-79
2023/07/05 00:51:23;;;;;;;;;;;;;;;17.34;78.37;92818.81;2068261;69;20059;-79
2023/07/05 00:53:53;;;;;;;;;;;;;;;17.30;78.05;92810.13;2068287;69;20081;-79
2023/07/05 00:56:27;;;;;;;;;;;;;;;17.36;76.99;92818.16;2068604;69;20527;-79
2023/07/05 00:58:53;;;;;;;;;;;;;;;17.32;77.06;92812.31;2068498;69;20487;-78
2023/07/05 01:01:19;;;;;;;;;;;;;;;17.22;78.39;92819.06;2068496;69;20078;-80
2023/07/05 01:03:50;;;;;;;;;;;;;;;17.11;78.99;92813.66;2055455;69;20050;-80
2023/07/05 01:06:19;;;;;;;;;;;;;;;17.17;78.51;92811.03;2068719;69;20058;-80
2023/07/05 01:08:47;;;;;;;;;;;;;;;17.15;78.12;92810.97;2055560;69;20058;-80
2023/07/05 01:11:30;;;;;;;;;;;;;;;17.13;78.10;92811.63;2068695;69;20442;-80
2023/07/05 01:14:00;;;;;;;;;;;;;;;16.97;78.80;92808.88;2055432;69;20149;-80
2023/07/05 01:16:38;;;;;;;;;;;;;;;16.90;78.29;92812.13;2067928;69;20506;-78
2023/07/05 01:19:13;;;;;;;;;;;;;;;16.80;79.31;92803.94;2055401;69;20057;-80
2023/07/05 01:22:00;;;;;;;;;;;;;;;16.80;79.20;92800.38;2055652;70;20057;-81
2023/07/05 01:24:48;;;;;;;;;;;;;;;16.84;78.16;92794.84;2055775;70;20530;-80
2023/07/05 01:27:23;;;;;;;;;;;;;;;16.88;78.15;92795.00;2055697;70;20039;-80
2023/07/05 01:30:07;;;;;;;;;;;;;;;16.75;78.77;92794.53;2055606;70;20074;-79
2023/07/05 01:32:37;;;;;;;;;;;;;;;16.83;77.90;92794.13;2055455;70;20066;-78
2023/07/05 01:35:09;;;;;;;;;;;;;;;16.88;77.87;92792.16;2068650;69;20146;-78
2023/07/05 01:37:40;;;;;;;;;;;;;;;16.70;78.78;92797.84;2068786;69;20057;-79
2023/07/05 01:42:58;;;;;;;;;;;;;;;16.69;78.52;92777.22;2031097;70;20062;-81
2023/07/05 01:45:35;;;;;;;;;;;;;;;16.61;78.68;92770.47;2041006;70;20076;-79
2023/07/05 01:48:05;;;;;;;;;;;;;;;16.62;77.84;92760.56;2038667;70;20051;-81
2023/07/05 01:50:36;;;;;;;;;;;;;;;16.65;78.13;92762.09;2038932;69;20094;-79
2023/07/05 01:53:12;;;;;;;;;;;;;;;16.60;78.60;92764.06;2039134;70;20056;-78
2023/07/05 01:55:41;;;;;;;;;;;;;;;16.57;78.74;92756.81;2041214;69;20245;-78
2023/07/05 01:58:18;;;;;;;;;;;;;;;16.62;78.49;92754.88;2041217;69;20526;-78
2023/07/05 02:00:46;;;;;;;;;;;;;;;16.61;78.91;92754.16;2041231;70;20052;-77
2023/07/05 02:03:14;;;;;;;;;;;;;;;16.74;77.36;92758.97;2038354;70;20154;-78
2023/07/05 02:05:40;;;;;;;;;;;;;;;16.74;77.35;92756.13;2037888;70;20063;-78
2023/07/05 02:08:05;;;;;;;;;;;;;;;16.73;76.81;92754.66;2039134;70;20047;-78
2023/07/05 02:10:32;;;;;;;;;;;;;;;16.70;77.21;92752.34;2038147;70;20051;-78
2023/07/05 02:12:58;;;;;;;;;;;;;;;16.65;77.16;92750.75;2038605;70;20088;-80
2023/07/05 02:15:25;;;;;;;;;;;;;;;16.52;78.59;92744.56;2039159;70;20064;-80
2023/07/05 02:17:52;;;;;;;;;;;;;;;15.75;81.01;92753.50;2039021;70;20163;-79
2023/07/05 02:20:18;;;;;;;;;;;;;;;15.88;81.26;92746.22;2039222;70;20159;-79
2023/07/05 02:22:43;;;;;;;;;;;;;;;16.30;79.18;92748.63;2041127;70;20479;-80
2023/07/05 02:25:08;;;;;;;;;;;;;;;16.37;78.51;92750.34;2038999;69;20091;-80
2023/07/05 02:27:35;;;;;;;;;;;;;;;16.29;78.91;92752.84;2054610;69;20151;-79
2023/07/05 02:30:00;;;;;;;;;;;;;;;16.27;78.84;92748.56;2040972;70;20044;-79
2023/07/05 02:32:26;;;;;;;;;;;;;;;16.33;78.50;92750.19;2038408;70;20059;-78
2023/07/05 02:34:52;;;;;;;;;;;;;;;16.37;77.89;92753.19;2039143;70;20532;-79
2023/07/05 02:37:19;;;;;;;;;;;;;;;16.35;78.25;92753.09;2039149;69;20048;-79
2023/07/05 02:39:45;;;;;;;;;;;;;;;16.23;78.86;92754.06;2039105;70;20095;-80
2023/07/05 02:42:10;;;;;;;;;;;;;;;16.21;78.96;92753.25;2039202;69;20063;-79
2023/07/05 02:44:36;;;;;;;;;;;;;;;16.21;78.60;92759.66;2041082;70;20070;-80
2023/07/05 02:47:01;;;;;;;;;;;;;;;16.19;78.49;92759.59;2039010;70;20153;-80
2023/07/05 02:49:27;;;;;;;;;;;;;;;16.25;78.88;92764.78;2039133;70;20143;-80
2023/07/05 02:51:54;;;;;;;;;;;;;;;16.18;78.58;92763.09;2039168;70;20415;-79
2023/07/05 02:54:19;;;;;;;;;;;;;;;16.19;78.48;92762.44;2041268;69;20480;-79
2023/07/05 02:56:44;;;;;;;;;;;;;;;16.13;79.01;92764.31;2039196;70;20064;-79
2023/07/05 02:59:10;;;;;;;;;;;;;;;16.13;79.06;92764.31;2041030;69;20171;-80
2023/07/05 03:01:35;;;;;;;;;;;;;;;16.02;79.63;92761.00;2038978;70;20058;-80
2023/07/05 03:04:01;;;;;;;;;;;;;;;16.14;78.89;92766.47;2039088;69;20483;-78
2023/07/05 03:06:26;;;;;;;;;;;;;;;16.02;79.79;92763.84;2038997;70;20063;-79
2023/07/05 03:08:52;;;;;;;;;;;;;;;16.12;78.60;92771.34;2041182;70;20078;-78
2023/07/05 03:11:18;;;;;;;;;;;;;;;16.13;78.64;92759.34;2038875;70;20052;-77
2023/07/05 03:13:44;;;;;;;;;;;;;;;16.14;78.88;92755.13;2038866;70;20059;-78
2023/07/05 03:16:09;;;;;;;;;;;;;;;16.02;78.55;92761.00;2054719;69;20140;-77
2023/07/05 03:18:38;;;;;;;;;;;;;;;15.65;80.88;92755.19;2039402;69;20183;-77
2023/07/05 03:21:04;;;;;;;;;;;;;;;15.90;79.18;92757.69;2041324;70;20464;-80
2023/07/05 03:23:29;;;;;;;;;;;;;;;15.84;79.11;92757.41;2039373;69;20153;-78
2023/07/05 03:25:56;;;;;;;;;;;;;;;15.81;79.21;92770.06;2054855;69;20430;-78
2023/07/05 03:28:23;;;;;;;;;;;;;;;15.79;79.01;92774.91;2039228;70;20075;-79
2023/07/05 03:30:54;;;;;;;;;;;;;;;15.76;78.60;92774.13;2039343;70;20586;-79
2023/07/05 03:33:20;;;;;;;;;;;;;;;15.74;79.04;92762.66;2041455;70;20079;-78
2023/07/05 03:35:52;;;;;;;;;;;;;;;15.70;78.92;92766.06;2039288;70;20202;-81
2023/07/05 03:38:19;;;;;;;;;;;;;;;15.73;78.75;92764.78;2041485;69;20144;-80
2023/07/05 03:40:45;;;;;;;;;;;;;;;15.74;78.23;92763.41;2051933;70;20147;-79
2023/07/05 03:43:11;;;;;;;;;;;;;;;15.73;77.99;92759.09;2039065;70;20064;-78
2023/07/05 03:45:37;;;;;;;;;;;;;;;15.60;79.00;92756.34;2039020;69;20473;-80
2023/07/05 03:48:02;;;;;;;;;;;;;;;15.56;79.22;92759.75;2039233;69;20079;-81
2023/07/05 03:50:28;;;;;;;;;;;;;;;15.66;78.54;92768.00;2039232;70;20060;-81
2023/07/05 03:52:53;;;;;;;;;;;;;;;15.70;78.02;92766.06;2039278;70;20468;-80
2023/07/05 03:55:19;;;;;;;;;;;;;;;15.55;78.88;92775.31;2038624;69;20122;-80
2023/07/05 03:57:44;;;;;;;;;;;;;;;15.44;78.90;92771.31;2039120;69;20055;-81
2023/07/05 04:00:12;;;;;;;;;;;;;;;15.51;78.81;92769.47;2038933;70;20441;-81
2023/07/05 04:02:41;;;;;;;;;;;;;;;15.43;78.24;92757.75;2039205;70;20063;-81
2023/07/05 04:05:07;;;;;;;;;;;;;;;15.52;78.39;92771.66;2039097;69;20048;-80
2023/07/05 04:07:32;;;;;;;;;;;;;;;15.47;78.47;92774.94;2039108;70;20078;-80
2023/07/05 04:09:58;;;;;;;;;;;;;;;15.44;79.13;92767.72;2039240;70;20566;-80
2023/07/05 04:12:23;;;;;;;;;;;;;;;15.45;79.10;92769.94;2039107;70;20147;-80
2023/07/05 04:14:49;;;;;;;;;;;;;;;15.46;78.97;92756.47;2039017;69;20431;-80
2023/07/05 04:17:14;;;;;;;;;;;;;;;15.45;78.77;92750.06;2039099;70;20052;-79
2023/07/05 04:19:42;;;;;;;;;;;;;;;15.43;79.15;92749.25;2039191;70;20099;-78
2023/07/05 04:22:08;;;;;;;;;;;;;;;15.48;79.35;92748.03;2039105;70;20059;-79
2023/07/05 04:24:34;;;;;;;;;;;;;;;15.51;79.02;92743.94;2038571;70;20056;-80
2023/07/05 04:26:59;;;;;;;;;;;;;;;15.36;79.59;92756.75;2039098;70;20623;-80
2023/07/05 04:29:25;;;;;;;;;;;;;;;15.40;79.62;92754.09;2038977;70;20056;-81
2023/07/05 04:31:50;;;;;;;;;;;;;;;15.50;79.44;92748.88;2039077;69;20462;-81
2023/07/05 04:34:16;;;;;;;;;;;;;;;15.51;79.20;92749.59;2039321;69;20052;-80
2023/07/05 04:36:41;;;;;;;;;;;;;;;15.48;79.34;92765.06;2039274;70;20103;-81
2023/07/05 04:39:06;;;;;;;;;;;;;;;15.58;78.53;92757.00;2039082;70;20056;-80
2023/07/05 04:41:32;;;;;;;;;;;;;;;15.43;80.12;92755.66;2039082;70;20112;-82
2023/07/05 04:43:57;;;;;;;;;;;;;;;15.56;78.69;92762.59;2038853;70;20091;-82
2023/07/05 04:46:23;;;;;;;;;;;;;;;15.50;79.32;92765.16;2038957;69;20143;-79
2023/07/05 04:48:48;;;;;;;;;;;;;;;15.57;78.73;92755.53;2039118;70;20106;-80
2023/07/05 04:51:14;;;;;;;;;;;;;;;15.51;79.78;92758.09;2039704;70;20076;-78
2023/07/05 04:53:39;;;;;;;;;;;;;;;15.56;78.52;92744.81;2039139;70;20082;-81
2023/07/05 04:56:05;;;;;;;;;;;;;;;15.61;78.44;92752.88;2039142;70;20048;-79
2023/07/05 04:58:32;;;;;;;;;;;;;;;15.58;78.91;92759.84;2038906;70;20060;-80
2023/07/05 05:01:02;;;;;;;;;;;;;;;15.50;80.01;92765.16;2038949;69;20595;-81
2023/07/05 05:03:28;;;;;;;;;;;;;;;15.58;79.22;92768.38;2038431;70;20051;-79
2023/07/05 05:05:54;;;;;;;;;;;;;;;15.47;79.60;92770.00;2038929;70;20060;-81
2023/07/05 05:08:22;;;;;;;;;;;;;;;15.59;78.96;92763.41;2038961;69;20062;-79
2023/07/05 05:10:55;;;;;;;;;;;;;;;15.57;79.29;92768.97;2038902;70;20048;-80
2023/07/05 05:13:22;;;;;;;;;;;;;;;15.63;78.54;92769.25;2038842;70;20056;-80
2023/07/05 05:15:48;;;;;;;;;;;;;;;15.64;78.17;92762.25;2039023;69;20052;-81
2023/07/05 05:18:13;;;;;;;;;;;;;;;15.59;79.19;92755.63;2039166;70;20166;-81
2023/07/05 05:20:39;;;;;;;;;;;;;;;15.61;79.07;92755.69;2039448;70;20051;-80
2023/07/05 05:23:05;;;;;;;;;;;;;;;15.57;79.36;92757.63;2039506;70;20051;-79
2023/07/05 05:25:30;;;;;;;;;;;;;;;15.60;79.23;92756.34;2039478;70;20519;-78
2023/07/05 05:27:56;;;;;;;;;;;;;;;15.56;79.76;92756.19;2039468;70;20052;-79
2023/07/05 05:30:21;;;;;;;;;;;;;;;15.68;78.41;92756.75;2038848;70;20044;-80
2023/07/05 05:32:47;;;;;;;;;;;;;;;15.55;79.96;92763.22;2039337;70;20055;-77
2023/07/05 05:35:13;;;;;;;;;;;;;;;15.40;79.99;92764.72;2039516;70;20084;-81
2023/07/05 05:37:39;;;;;;;;;;;;;;;15.61;79.25;92777.69;2039574;70;20116;-80
2023/07/05 05:40:05;;;;;;;;;;;;;;;15.72;77.96;92774.66;2039336;70;20147;-79
2023/07/05 05:42:31;;;;;;;;;;;;;;;15.77;77.69;92772.00;2039209;70;20082;-81
2023/07/05 05:44:56;;;;;;;;;;;;;;;15.57;77.93;92771.81;2039101;69;20052;-79
2023/07/05 05:47:22;;;;;;;;;;;;;;;15.19;80.16;92772.31;2039249;69;20056;-80
2023/07/05 05:49:47;;;;;;;;;;;;;;;15.29;80.31;92769.19;2039315;69;20052;-80
2023/07/05 05:52:12;;;;;;;;;;;;;;;15.63;79.36;92766.44;2039456;70;20083;-81
2023/07/05 05:54:38;;;;;;;;;;;;;;;15.73;78.36;92749.84;2039335;69;20052;-77
2023/07/05 05:57:03;;;;;;;;;;;;;;;15.71;78.01;92744.84;2039366;69;20545;-79
2023/07/05 05:59:29;;;;;;;;;;;;;;;15.71;78.36;92744.84;2039468;70;20072;-79
2023/07/05 06:01:54;;;;;;;;;;;;;;;15.81;78.60;92743.81;2039295;70;20048;-79
2023/07/05 06:04:19;;;;;;;;;;;;;;;15.78;79.47;92740.13;2039375;70;20055;-80
2023/07/05 06:06:45;;;;;;;;;;;;;;;15.84;78.42;92739.66;2039361;70;20052;-78
2023/07/05 06:09:10;;;;;;;;;;;;;;;15.78;79.64;92739.41;2039218;69;20056;-76
2023/07/05 06:11:36;;;;;;;;;;;;;;;15.73;78.76;92736.41;2039220;70;20077;-78
2023/07/05 06:14:02;;;;;;;;;;;;;;;15.86;78.67;92745.44;2039189;70;20454;-77
2023/07/05 06:16:27;;;;;;;;;;;;;;;15.95;78.34;92747.22;2039265;70;20112;-79
2023/07/05 06:18:53;;;;;;;;;;;;;;;15.97;78.32;92755.81;2039307;70;20484;-80
2023/07/05 06:21:18;;;;;;;;;;;;;;;15.80;77.04;92756.50;2039316;69;20048;-80
2023/07/05 06:23:44;;;;;;;;;;;;;;;15.85;77.17;92750.38;2039301;70;20052;-79
2023/07/05 06:26:12;;;;;;;;;;;;;;;15.95;76.80;92744.41;2039912;70;20060;-79
2023/07/05 06:28:37;;;;;;;;;;;;;;;16.08;79.20;92734.25;2039464;70;20051;-79
2023/07/05 06:31:04;;;;;;;;;;;;;;;16.17;78.30;92731.13;2039392;69;20499;-78
2023/07/05 06:33:31;;;;;;;;;;;;;;;16.32;77.44;92721.06;2039232;70;20056;-77
2023/07/05 06:36:00;;;;;;;;;;;;;;;16.23;78.11;92708.63;2039094;70;20090;-78
2023/07/05 06:38:26;;;;;;;;;;;;;;;16.46;78.85;92718.78;2041331;70;20622;-79
2023/07/05 06:40:52;;;;;;;;;;;;;;;16.62;79.11;92727.19;2039129;70;20056;-79
2023/07/05 06:43:18;;;;;;;;;;;;;;;16.77;78.84;92731.34;2039035;70;20116;-78
2023/07/05 06:45:50;;;;;;;;;;;;;;;16.80;79.84;92738.56;2039262;70;20099;-79
2023/07/05 06:48:15;;;;;;;;;;;;;;;16.97;79.46;92748.44;2039241;70;20143;-80
2023/07/05 06:50:41;;;;;;;;;;;;;;;17.12;77.57;92744.00;2039178;69;20430;-78
2023/07/05 06:53:06;;;;;;;;;;;;;;;17.17;79.15;92737.09;2039288;70;20122;-79
2023/07/05 06:55:32;;;;;;;;;;;;;;;17.30;78.18;92744.69;2039251;70;20119;-78
2023/07/05 06:57:57;;;;;;;;;;;;;;;17.43;77.93;92738.06;2039505;69;20066;-78
2023/07/05 07:00:22;;;;;;;;;;;;;;;17.54;78.09;92736.28;2039162;70;20145;-78
2023/07/05 07:02:48;;;;;;;;;;;;;;;17.66;75.96;92741.69;2039284;70;20177;-77
2023/07/05 07:05:15;;;;;;;;;;;;;;;17.69;76.97;92720.47;2039334;69;20063;-77
2023/07/05 07:07:40;;;;;;;;;;;;;;;17.73;77.02;92720.59;2039319;70;20048;-79
2023/07/05 07:10:06;;;;;;;;;;;;;;;17.85;75.49;92715.34;2039298;69;20059;-79
2023/07/05 07:12:31;;;;;;;;;;;;;;;18.00;75.28;92708.72;2039332;70;20140;-77
2023/07/05 07:14:56;;;;;;;;;;;;;;;18.00;75.90;92710.84;2039231;69;20067;-79
2023/07/05 07:17:22;;;;;;;;;;;;;;;18.09;74.33;92694.75;2039372;70;20076;-79
2023/07/05 07:19:47;;;;;;;;;;;;;;;18.16;75.57;92708.53;2039329;69;20051;-78
2023/07/05 07:22:14;;;;;;;;;;;;;;;18.21;77.05;92704.44;2039281;70;20419;-78
2023/07/05 07:24:42;;;;;;;;;;;;;;;18.23;76.40;92704.50;2039332;70;20064;-78
2023/07/05 07:27:10;;;;;;;;;;;;;;;18.29;77.03;92692.59;2038763;69;20052;-80
2023/07/05 07:29:35;;;;;;;;;;;;;;;18.33;75.92;92692.00;2039184;69;20553;-81
2023/07/05 07:32:01;;;;;;;;;;;;;;;18.39;75.49;92686.47;2039285;70;20052;-80
2023/07/05 07:34:28;;;;;;;;;;;;;;;18.43;76.43;92680.91;2039256;69;20138;-79
2023/07/05 07:36:53;;;;;;;;;;;;;;;18.37;75.43;92690.00;2039236;69;20060;-80
2023/07/05 07:39:19;;;;;;;;;;;;;;;18.64;77.91;92685.09;2039502;70;20052;-80
2023/07/05 07:41:44;;;;;;;;;;;;;;;18.69;76.32;92686.69;2039090;70;20172;-77
2023/07/05 07:44:10;;;;;;;;;;;;;;;18.69;76.98;92683.84;2039131;69;20052;-78
2023/07/05 07:46:37;;;;;;;;;;;;;;;18.91;76.55;92680.94;2039276;70;20048;-77
2023/07/05 07:49:02;;;;;;;;;;;;;;;19.05;76.92;92687.06;2039602;70;20474;-81
2023/07/05 07:51:29;;;;;;;;;;;;;;;19.09;76.06;92689.31;2039411;70;20056;-82
2023/07/05 07:53:55;;;;;;;;;;;;;;;19.26;76.00;92685.53;2039283;70;20084;-79
2023/07/05 07:56:22;;;;;;;;;;;;;;;19.26;77.96;92688.41;2039288;70;20094;-80
2023/07/05 07:58:49;;;;;;;;;;;;;;;19.38;76.90;92685.88;2039241;70;20052;-80
2023/07/05 08:01:14;;;;;;;;;;;;;;;19.47;71.71;92683.97;2039793;70;20063;-81
2023/07/05 08:03:40;;;;;;;;;;;;;;;19.62;70.80;92673.72;2039413;70;20056;-81
2023/07/05 08:06:06;;;;;;;;;;;;;;;19.78;72.80;92671.25;2039413;70;20110;-80
2023/07/05 08:08:32;;;;;;;;;;;;;;;19.84;67.88;92667.84;2039377;70;20496;-79
2023/07/05 08:10:58;;;;;;;;;;;;;;;20.14;70.87;92662.19;2039219;70;20064;-81
2023/07/05 08:13:23;;;;;;;;;;;;;;;20.24;65.34;92653.84;2039116;69;20408;-79
2023/07/05 08:15:48;;;;;;;;;;;;;;;20.45;66.88;92652.94;2041422;70;20147;-80
2023/07/05 08:18:14;;;;;;;;;;;;;;;20.65;68.17;92643.38;2039350;70;20064;-80
2023/07/05 08:20:39;;;;;;;;;;;;;;;20.69;65.47;92649.19;2054679;69;20569;-79
2023/07/05 08:23:05;;;;;;;;;;;;;;;21.16;66.81;92638.75;2038725;70;20056;-79
2023/07/05 08:25:33;;;;;;;;;;;;;;;21.39;61.56;92626.34;2039188;70;20475;-78
2023/07/05 08:28:00;;;;;;;;;;;;;;;21.90;63.01;92626.56;2039139;70;20056;-78
2023/07/05 08:30:26;;;;;;;;;;;;;;;22.41;60.02;92627.47;2039142;70;20054;-79
2023/07/05 08:32:51;;;;;;;;;;;;;;;22.40;57.85;92623.84;2039206;69;20044;-79
2023/07/05 08:35:17;;;;;;;;;;;;;;;23.02;60.26;92622.63;2039121;70;20052;-79
2023/07/05 08:37:48;;;;;;;;;;;;;;;23.38;57.49;92619.47;2039394;70;20071;-79
2023/07/05 08:40:15;;;;;;;;;;;;;;;23.72;55.90;92618.44;2039325;70;20158;-79
2023/07/05 08:42:55;;;;;;;;;;;;;;;23.91;54.22;92620.06;2035790;70;20091;-79
2023/07/05 08:45:23;;;;;;;;;;;;;;;24.11;50.05;92618.84;2039004;69;20081;-79
2023/07/05 08:47:50;;;;;;;;;;;;;;;24.30;51.62;92618.28;2039184;69;20480;-79
2023/07/05 08:50:21;;;;;;;;;;;;;;;24.34;49.12;92615.44;2039152;69;20052;-79
2023/07/05 08:52:47;;;;;;;;;;;;;;;24.50;49.58;92614.13;2039341;70;20499;-79
2023/07/05 08:55:17;;;;;;;;;;;;;;;24.66;48.46;92611.38;2039617;70;20048;-79
2023/07/05 08:57:49;;;;;;;;;;;;;;;25.42;50.10;92611.81;2039582;70;20096;-78
2023/07/05 09:00:16;;;;;;;;;;;;;;;24.53;50.17;92604.81;2039538;69;20052;-78
2023/07/05 09:02:42;;;;;;;;;;;;;;;24.16;50.05;92609.53;2039556;70;20107;-79
2023/07/05 09:05:40;;;;;;;;;;;;;;;25.59;49.14;92599.63;2039610;70;20122;-78
2023/07/05 09:08:06;;;;;;;;;;;;;;;26.41;44.38;92602.66;2054491;70;20073;-78
2023/07/05 09:10:41;;;;;;;;;;;;;;;26.55;46.73;92596.91;2054542;70;20156;-78
2023/07/05 09:13:12;;;;;;;;;;;;;;;27.36;44.84;92590.28;2054391;70;20063;-80
2023/07/05 09:16:00;;;;;;;;;;;;;;;27.75;42.75;92592.28;2054296;70;20050;-79
2023/07/05 09:18:28;;;;;;;;;;;;;;;26.45;43.04;92588.28;2054488;70;20670;-79
2023/07/05 09:21:02;;;;;;;;;;;;;;;26.22;42.31;92581.75;2045069;70;20072;-79
2023/07/05 09:23:31;;;;;;;;;;;;;;;26.80;43.42;92586.06;2035075;70;20096;-78
2023/07/05 09:26:01;;;;;;;;;;;;;;;26.71;43.55;92584.66;2035087;70;20059;-78
2023/07/05 09:28:50;;;;;;;;;;;;;;;27.27;43.02;92583.09;2035099;70;20062;-79
2023/07/05 09:31:16;;;;;;;;;;;;;;;26.67;40.26;92578.88;2030534;70;20060;-79
2023/07/05 09:33:46;;;;;;;;;;;;;;;25.81;42.71;92575.94;2035402;70;20060;-80
2023/07/05 09:36:22;;;;;;;;;;;;;;;25.33;43.41;92576.47;2032383;70;20044;-79
2023/07/05 09:38:52;;;;;;;;;;;;;;;26.85;42.37;92575.25;2035115;70;20159;-79
2023/07/05 09:41:20;;;;;;;;;;;;;;;27.97;48.86;92571.91;2035030;70;20084;-78
2023/07/05 09:43:46;;;;;;;;;;;;;;;27.19;40.79;92562.88;2037230;70;20057;-79
2023/07/05 09:46:26;;;;;;;;;;;;;;;25.92;41.36;92561.53;2039492;70;20510;-81
2023/07/05 09:48:54;;;;;;;;;;;;;;;27.08;42.17;92558.56;2039004;70;20052;-81
2023/07/05 09:51:21;;;;;;;;;;;;;;;27.34;43.68;92555.59;2041779;70;20052;-80
2023/07/05 09:53:55;;;;;;;;;;;;;;;27.01;41.54;92548.47;2039620;70;20108;-82
2023/07/05 09:56:28;;;;;;;;;;;;;;;27.07;42.71;92554.22;2039449;70;20439;-78
2023/07/05 09:59:07;;;;;;;;;;;;;;;26.35;46.84;92544.97;2039352;70;20105;-77
2023/07/05 10:01:34;;;;;;;;;;;;;;;26.52;47.86;92548.56;2039583;70;20081;-78
2023/07/05 10:04:02;;;;;;;;;;;;;;;26.57;48.49;92547.84;2039456;70;20132;-79
2023/07/05 10:06:28;;;;;;;;;;;;;;;26.65;48.35;92537.72;2039485;70;20058;-79
2023/07/05 10:08:55;;;;;;;;;;;;;;;26.53;48.39;92538.47;2039485;70;20459;-79
2023/07/05 10:11:20;;;;;;;;;;;;;;;26.43;49.13;92533.41;2039464;70;20055;-79
2023/07/05 10:13:46;;;;;;;;;;;;;;;26.71;48.58;92535.56;2039379;70;20051;-80
2023/07/05 10:16:12;;;;;;;;;;;;;;;26.73;49.03;92531.94;2039571;70;20048;-80
2023/07/05 10:18:40;;;;;;;;;;;;;;;27.00;48.20;92524.66;2039601;70;20050;-80
2023/07/05 10:21:19;;;;;;;;;;;;;;;26.96;48.41;92518.16;2041670;70;20067;-81
2023/07/05 10:23:44;;;;;;;;;;;;;;;26.82;48.15;92507.38;2039463;70;20078;-78
2023/07/05 10:26:11;;;;;;;;;;;;;;;26.67;49.57;92506.69;2039493;70;20052;-77
2023/07/05 10:28:39;;;;;;;;;;;;;;;26.90;48.73;92512.41;2039350;70;20493;-80
2023/07/05 10:31:05;;;;;;;;;;;;;;;26.75;49.87;92512.44;2039588;70;20056;-77
2023/07/05 10:33:36;;;;;;;;;;;;;;;27.60;48.72;92504.88;2039540;69;20055;-80
2023/07/05 10:36:04;;;;;;;;;;;;;;;27.94;46.61;92509.03;2039461;70;20045;-77
2023/07/05 10:38:44;;;;;;;;;;;;;;;28.28;46.12;92494.28;2039431;70;20481;-77
2023/07/05 10:41:18;;;;;;;;;;;;;;;29.27;40.74;92491.09;2039399;70;20431;-80
2023/07/05 10:43:48;;;;;;;;;;;;;;;27.23;40.45;92490.63;2039092;70;20083;-77
2023/07/05 10:46:16;;;;;;;;;;;;;;;26.75;42.62;92477.78;2039380;70;20076;-79
2023/07/05 10:48:43;;;;;;;;;;;;;;;26.98;43.27;92478.41;2039386;70;20098;-79
2023/07/05 10:51:19;;;;;;;;;;;;;;;27.44;46.84;92478.94;2039476;70;20094;-80
2023/07/05 10:53:52;;;;;;;;;;;;;;;27.65;47.52;92471.59;2039441;70;20499;-79
2023/07/05 10:56:20;;;;;;;;;;;;;;;27.23;49.39;92473.28;2038286;69;20079;-78
2023/07/05 10:58:51;;;;;;;;;;;;;;;27.36;48.35;92468.88;2037585;70;20548;-79
2023/07/05 11:01:28;;;;;;;;;;;;;;;27.42;48.39;92445.00;2038444;70;20134;-80
2023/07/05 11:03:57;;;;;;;;;;;;;;;27.47;48.21;92460.16;2038357;70;20174;-79
2023/07/05 11:06:22;;;;;;;;;;;;;;;27.42;47.75;92450.78;2038925;70;20056;-79
2023/07/05 11:08:48;;;;;;;;;;;;;;;27.44;48.69;92450.75;2038718;70;20054;-79
2023/07/05 11:11:19;;;;;;;;;;;;;;;27.30;50.08;92454.47;2039925;70;20086;-79
2023/07/05 11:13:47;;;;;;;;;;;;;;;26.86;50.38;92449.59;2039320;70;20054;-79
2023/07/05 11:16:24;;;;;;;;;;;;;;;27.25;50.93;92453.03;2038897;70;20488;-80
2023/07/05 11:18:50;;;;;;;;;;;;;;;28.35;49.08;92458.06;2039174;70;20147;-78
2023/07/05 11:21:32;;;;;;;;;;;;;;;31.42;43.16;92456.38;2038717;70;20435;-78
2023/07/05 11:23:58;;;;;;;;;;;;;;;31.12;39.70;92452.59;2039055;70;20197;-79
2023/07/05 11:26:31;;;;;;;;;;;;;;;29.13;39.96;92449.25;2038372;69;20161;-78
2023/07/05 11:28:56;;;;;;;;;;;;;;;31.80;34.46;92451.91;2039044;70;20067;-78
2023/07/05 11:31:28;;;;;;;;;;;;;;;29.71;36.16;92439.78;2039119;70;20060;-79
2023/07/05 11:34:13;;;;;;;;;;;;;;;28.39;38.19;92436.31;2038467;70;20162;-81
2023/07/05 11:36:39;;;;;;;;;;;;;;;28.18;41.67;92429.97;2039357;70;20141;-80
2023/07/05 11:39:06;;;;;;;;;;;;;;;27.55;40.44;92428.31;2039304;70;20155;-80
2023/07/05 11:41:32;;;;;;;;;;;;;;;27.83;38.76;92419.44;2039118;70;20488;-79
2023/07/05 11:44:00;;;;;;;;;;;;;;;27.81;44.65;92418.72;2038942;70;20067;-80
2023/07/05 11:46:55;;;;;;;;;;;;;;;27.65;48.30;92418.84;2039181;70;20064;-81
2023/07/05 11:49:20;;;;;;;;;;;;;;;27.89;48.39;92421.56;2038844;70;20072;-83
2023/07/05 11:52:09;;;;;;;;;;;;;;;27.56;49.03;92418.91;2039300;70;20048;-80
2023/07/05 11:54:37;;;;;;;;;;;;;;;27.83;48.06;92412.94;2038071;70;20147;-84
2023/07/05 11:57:05;;;;;;;;;;;;;;;27.47;48.67;92429.06;2039232;70;20054;-79
2023/07/05 11:59:32;;;;;;;;;;;;;;;27.14;49.34;92431.44;2039120;70;20056;-81
2023/07/05 12:02:03;;;;;;;;;;;;;;;26.72;50.35;92438.13;2039350;70;20064;-80
2023/07/05 12:04:32;;;;;;;;;;;;;;;26.58;50.89;92436.72;2039199;70;20139;-81
2023/07/05 12:06:57;;;;;;;;;;;;;;;26.01;52.52;92462.03;2039280;70;20090;-82
2023/07/05 12:09:29;;;;;;;;;;;;;;;25.65;50.26;92472.09;2039302;70;20503;-81
2023/07/05 12:11:58;;;;;;;;;;;;;;;24.58;46.56;92485.44;2041324;70;20052;-78
2023/07/05 12:14:26;;;;;;;;;;;;;;;24.74;46.22;92496.31;2039170;70;20105;-79
2023/07/05 12:16:54;;;;;;;;;;;;;;;24.23;46.05;92504.59;2039188;70;20060;-81
2023/07/05 12:19:27;;;;;;;;;;;;;;;24.42;45.68;92514.13;2038711;70;20052;-78
2023/07/05 12:21:55;;;;;;;;;;;;;;;23.91;46.24;92533.81;2039060;70;20097;-78
2023/07/05 12:24:20;;;;;;;;;;;;;;;23.99;46.29;92533.19;2039205;70;20055;-79
2023/07/05 12:29:53;;;;;;;;;;;;;;;23.75;47.44;92543.03;2039478;69;20058;-79
2023/07/05 12:32:21;;;;;;;;;;;;;;;23.70;47.39;92544.44;2039815;70;20147;-79
2023/07/05 12:34:46;;;;;;;;;;;;;;;23.84;47.10;92567.56;2039236;70;20567;-79
2023/07/05 12:37:28;;;;;;;;;;;;;;;23.89;49.82;92579.09;2039725;70;20048;-79
2023/07/05 12:43:22;;;;;;;;;;;;;;;23.42;48.21;92676.97;2038358;70;20146;-79
2023/07/05 12:45:48;;;;;;;;;;;;;;;22.51;49.15;92708.66;2041756;70;20477;-79
2023/07/05 12:48:13;;;;;;;;;;;;;;;22.01;53.90;92740.00;2039762;69;20439;-79
2023/07/05 12:50:38;;;;;;;;;;;;;;;21.91;55.12;92740.53;2039737;70;20091;-79
2023/07/05 13:00:09;;;;;;;;;;;;;;;21.36;59.02;92744.41;2039620;70;20118;-79
2023/07/05 13:02:35;;;;;;;;;;;;;;;21.63;59.26;92743.56;2039229;70;20568;-80
2023/07/05 13:05:02;;;;;;;;;;;;;;;21.35;61.17;92751.53;2039731;70;20143;-79
2023/07/05 13:07:28;;;;;;;;;;;;;;;21.70;60.44;92747.97;2039490;70;20048;-81
2023/07/05 13:10:00;;;;;;;;;;;;;;;22.05;60.34;92742.94;2039843;70;20090;-80
2023/07/05 13:12:42;;;;;;;;;;;;;;;22.33;60.14;92742.75;2039689;70;20488;-80